sensor_id;sensor_type;location;lat;lon;timestamp;pressure;altitude;pressure_sealevel;temperature;humidity
50380;BME280;37474;59.468;18.040;2023-04-21T00:00:04;102640.44;;;0.63;80.78
50380;BME280;37474;59.468;18.040;2023-04-21T00:02:35;102616.22;;;0.44;82.25
50380;BME280;37474;59.468;18.040;2023-04-21T00:05:08;102641.22;;;0.61;82.34
50380;BME280;37474;59.468;18.040;2023-04-21T00:07:38;102637.81;;;0.60;81.99
50380;BME280;37474;59.468;18.040;2023-04-21T00:10:08;102639.56;;;0.61;82.66
50380;BME280;37474;59.468;18.040;2023-04-21T00:12:37;102582.75;;;0.29;82.65
50380;BME280;37474;59.468;18.040;2023-04-21T00:15:08;102632.56;;;0.54;82.68
50380;BME280;37474;59.468;18.040;2023-04-21T00:17:36;102629.97;;;0.51;82.35
50380;BME280;37474;59.468;18.040;2023-04-21T00:20:07;102629.16;;;0.52;80.21
50380;BME280;37474;59.468;18.040;2023-04-21T00:22:37;102631.19;;;0.70;81.45
50380;BME280;37474;59.468;18.040;2023-04-21T00:25:06;102572.81;;;0.43;82.20
50380;BME280;37474;59.468;18.040;2023-04-21T00:27:34;102620.03;;;0.65;83.44
50380;BME280;37474;59.468;18.040;2023-04-21T00:30:02;102621.72;;;0.64;82.91
50380;BME280;37474;59.468;18.040;2023-04-21T00:32:30;102613.63;;;0.85;82.77
50380;BME280;37474;59.468;18.040;2023-04-21T00:34:58;102616.47;;;0.57;83.70
50380;BME280;37474;59.468;18.040;2023-04-21T00:37:29;102612.38;;;0.65;83.77
50380;BME280;37474;59.468;18.040;2023-04-21T00:39:57;102616.44;;;0.55;82.23
50380;BME280;37474;59.468;18.040;2023-04-21T00:42:25;102605.25;;;0.48;81.41
50380;BME280;37474;59.468;18.040;2023-04-21T00:44:53;102583.63;;;0.31;82.81
50380;BME280;37474;59.468;18.040;2023-04-21T00:47:21;102604.47;;;0.51;84.03
50380;BME280;37474;59.468;18.040;2023-04-21T00:49:49;102609.13;;;0.30;85.34
50380;BME280;37474;59.468;18.040;2023-04-21T00:52:18;102597.19;;;0.29;84.32
50380;BME280;37474;59.468;18.040;2023-04-21T00:54:47;102607.44;;;0.32;84.04
50380;BME280;37474;59.468;18.040;2023-04-21T00:57:16;102611.44;;;0.19;84.89
50380;BME280;37474;59.468;18.040;2023-04-21T00:59:47;102610.84;;;0.31;83.93
50380;BME280;37474;59.468;18.040;2023-04-21T01:02:15;102613.31;;;0.28;83.41
50380;BME280;37474;59.468;18.040;2023-04-21T01:04:45;102615.69;;;0.18;83.39
50380;BME280;37474;59.468;18.040;2023-04-21T01:07:14;102606.03;;;0.05;84.86
50380;BME280;37474;59.468;18.040;2023-04-21T01:09:42;102607.66;;;0.02;84.55
50380;BME280;37474;59.468;18.040;2023-04-21T01:12:11;102600.84;;;0.01;85.48
50380;BME280;37474;59.468;18.040;2023-04-21T01:14:40;102604.94;;;-0.06;84.66
50380;BME280;37474;59.468;18.040;2023-04-21T01:17:10;102598.84;;;-0.11;84.74
50380;BME280;37474;59.468;18.040;2023-04-21T01:19:42;102587.03;;;-0.09;84.64
50380;BME280;37474;59.468;18.040;2023-04-21T01:22:12;102598.00;;;-0.12;85.75
50380;BME280;37474;59.468;18.040;2023-04-21T01:24:42;102597.47;;;0.02;83.46
50380;BME280;37474;59.468;18.040;2023-04-21T01:27:12;102592.25;;;-0.03;84.90
50380;BME280;37474;59.468;18.040;2023-04-21T01:29:41;102590.31;;;-0.15;85.46
50380;BME280;37474;59.468;18.040;2023-04-21T01:32:12;102587.78;;;-0.13;85.58
50380;BME280;37474;59.468;18.040;2023-04-21T01:34:41;102589.38;;;-0.18;87.66
50380;BME280;37474;59.468;18.040;2023-04-21T01:37:12;102580.97;;;-0.14;85.99
50380;BME280;37474;59.468;18.040;2023-04-21T01:39:42;102585.91;;;-0.22;86.37
50380;BME280;37474;59.468;18.040;2023-04-21T01:42:11;102582.41;;;-0.25;85.17
50380;BME280;37474;59.468;18.040;2023-04-21T01:44:39;102533.28;;;-0.56;85.66
50380;BME280;37474;59.468;18.040;2023-04-21T01:47:09;102578.72;;;-0.38;85.56
50380;BME280;37474;59.468;18.040;2023-04-21T01:49:37;102578.75;;;-0.37;86.88
50380;BME280;37474;59.468;18.040;2023-04-21T01:52:05;102577.88;;;-0.39;87.81
50380;BME280;37474;59.468;18.040;2023-04-21T01:54:35;102574.69;;;-0.29;86.53
50380;BME280;37474;59.468;18.040;2023-04-21T01:57:03;102539.28;;;-0.54;86.44
50380;BME280;37474;59.468;18.040;2023-04-21T01:59:34;102570.13;;;-0.43;86.12
50380;BME280;37474;59.468;18.040;2023-04-21T02:02:02;102569.06;;;-0.51;85.63
50380;BME280;37474;59.468;18.040;2023-04-21T02:04:31;102568.28;;;-0.49;86.28
50380;BME280;37474;59.468;18.040;2023-04-21T02:06:59;102570.00;;;-0.48;87.95
50380;BME280;37474;59.468;18.040;2023-04-21T02:09:27;102574.97;;;-0.54;87.90
50380;BME280;37474;59.468;18.040;2023-04-21T02:11:57;102574.97;;;-0.54;85.81
50380;BME280;37474;59.468;18.040;2023-04-21T02:14:26;102573.94;;;-0.61;86.07
50380;BME280;37474;59.468;18.040;2023-04-21T02:16:54;102571.28;;;-0.65;86.84
50380;BME280;37474;59.468;18.040;2023-04-21T02:19:22;102573.88;;;-0.64;87.74
50380;BME280;37474;59.468;18.040;2023-04-21T02:21:51;102534.44;;;-0.80;86.61
50380;BME280;37474;59.468;18.040;2023-04-21T02:24:18;102570.84;;;-0.49;86.43
50380;BME280;37474;59.468;18.040;2023-04-21T02:26:46;102574.25;;;-0.47;88.05
50380;BME280;37474;59.468;18.040;2023-04-21T02:29:16;102574.09;;;-0.55;88.18
50380;BME280;37474;59.468;18.040;2023-04-21T02:31:44;102575.09;;;-0.48;88.98
50380;BME280;37474;59.468;18.040;2023-04-21T02:34:26;102580.06;;;-0.54;89.29
50380;BME280;37474;59.468;18.040;2023-04-21T02:36:54;102584.84;;;-0.66;88.32
50380;BME280;37474;59.468;18.040;2023-04-21T02:39:23;102582.09;;;-0.74;88.36
50380;BME280;37474;59.468;18.040;2023-04-21T02:41:51;102577.31;;;-0.62;87.22
50380;BME280;37474;59.468;18.040;2023-04-21T02:44:22;102575.19;;;-0.78;88.63
50380;BME280;37474;59.468;18.040;2023-04-21T02:46:50;102579.44;;;-0.78;88.71
50380;BME280;37474;59.468;18.040;2023-04-21T02:49:18;102577.56;;;-0.86;89.04
50380;BME280;37474;59.468;18.040;2023-04-21T02:51:47;102582.03;;;-0.77;89.42
50380;BME280;37474;59.468;18.040;2023-04-21T02:54:15;102581.00;;;-0.84;89.50
50380;BME280;37474;59.468;18.040;2023-04-21T02:56:43;102575.84;;;-0.87;91.25
50380;BME280;37474;59.468;18.040;2023-04-21T02:59:11;102574.19;;;-0.85;92.52
50380;BME280;37474;59.468;18.040;2023-04-21T03:01:43;102576.56;;;-0.92;93.75
50380;BME280;37474;59.468;18.040;2023-04-21T03:04:12;102578.47;;;-0.84;93.75
50380;BME280;37474;59.468;18.040;2023-04-21T03:06:40;102570.91;;;-0.81;91.29
50380;BME280;37474;59.468;18.040;2023-04-21T03:09:08;102577.88;;;-0.73;89.88
50380;BME280;37474;59.468;18.040;2023-04-21T03:11:39;102573.53;;;-0.77;91.34
50380;BME280;37474;59.468;18.040;2023-04-21T03:14:07;102570.78;;;-0.85;92.54
50380;BME280;37474;59.468;18.040;2023-04-21T03:16:35;102565.19;;;-0.72;93.47
50380;BME280;37474;59.468;18.040;2023-04-21T03:19:05;102531.28;;;-1.04;92.98
50380;BME280;37474;59.468;18.040;2023-04-21T03:21:35;102560.47;;;-0.90;92.73
50380;BME280;37474;59.468;18.040;2023-04-21T03:24:05;102560.28;;;-0.99;91.77
50380;BME280;37474;59.468;18.040;2023-04-21T03:26:33;102559.28;;;-1.04;93.49
50380;BME280;37474;59.468;18.040;2023-04-21T03:29:01;102557.88;;;-0.93;94.32
50380;BME280;37474;59.468;18.040;2023-04-21T03:31:29;102566.63;;;-0.83;92.59
50380;BME280;37474;59.468;18.040;2023-04-21T03:33:57;102501.03;;;-1.26;92.17
50380;BME280;37474;59.468;18.040;2023-04-21T03:36:26;102552.03;;;-0.89;92.27
50380;BME280;37474;59.468;18.040;2023-04-21T03:38:55;102557.06;;;-0.92;91.72
50380;BME280;37474;59.468;18.040;2023-04-21T03:41:38;102555.38;;;-0.90;91.28
50380;BME280;37474;59.468;18.040;2023-04-21T03:44:06;102557.28;;;-0.83;91.20
50380;BME280;37474;59.468;18.040;2023-04-21T03:46:37;102563.25;;;-0.82;91.93
50380;BME280;37474;59.468;18.040;2023-04-21T03:49:05;102559.72;;;-0.87;92.68
50380;BME280;37474;59.468;18.040;2023-04-21T03:51:35;102556.44;;;-0.83;93.61
50380;BME280;37474;59.468;18.040;2023-04-21T03:54:03;102547.09;;;-0.83;93.26
50380;BME280;37474;59.468;18.040;2023-04-21T03:56:31;102559.31;;;-0.68;94.49
50380;BME280;37474;59.468;18.040;2023-04-21T03:58:59;102556.84;;;-0.66;94.39
50380;BME280;37474;59.468;18.040;2023-04-21T04:01:27;102553.66;;;-0.56;94.70
50380;BME280;37474;59.468;18.040;2023-04-21T04:03:55;102555.00;;;-0.36;95.55
50380;BME280;37474;59.468;18.040;2023-04-21T04:06:24;102555.25;;;-0.23;95.58
50380;BME280;37474;59.468;18.040;2023-04-21T04:08:53;102537.50;;;-0.20;95.45
50380;BME280;37474;59.468;18.040;2023-04-21T04:11:21;102545.25;;;-0.16;93.94
50380;BME280;37474;59.468;18.040;2023-04-21T04:13:49;102519.44;;;-0.30;93.89
50380;BME280;37474;59.468;18.040;2023-04-21T04:16:17;102540.56;;;0.04;93.43
50380;BME280;37474;59.468;18.040;2023-04-21T04:18:45;102535.69;;;0.16;92.80
50380;BME280;37474;59.468;18.040;2023-04-21T04:21:13;102547.03;;;0.29;92.24
50380;BME280;37474;59.468;18.040;2023-04-21T04:23:41;102534.50;;;0.40;91.70
50380;BME280;37474;59.468;18.040;2023-04-21T04:26:11;102539.00;;;0.55;91.70
50380;BME280;37474;59.468;18.040;2023-04-21T04:28:39;102534.16;;;0.67;91.00
50380;BME280;37474;59.468;18.040;2023-04-21T04:31:07;102524.00;;;0.71;89.54
50380;BME280;37474;59.468;18.040;2023-04-21T04:33:36;102532.81;;;0.89;86.76
50380;BME280;37474;59.468;18.040;2023-04-21T04:36:07;102534.78;;;1.05;87.07
50380;BME280;37474;59.468;18.040;2023-04-21T04:38:36;102525.75;;;1.22;85.71
50380;BME280;37474;59.468;18.040;2023-04-21T04:41:04;102524.31;;;1.40;86.90
50380;BME280;37474;59.468;18.040;2023-04-21T04:43:35;102527.91;;;1.54;83.46
50380;BME280;37474;59.468;18.040;2023-04-21T04:46:05;102523.94;;;1.76;83.90
50380;BME280;37474;59.468;18.040;2023-04-21T04:48:34;102531.03;;;1.95;85.24
50380;BME280;37474;59.468;18.040;2023-04-21T04:51:02;102528.69;;;2.12;81.82
50380;BME280;37474;59.468;18.040;2023-04-21T04:53:31;102530.69;;;2.37;79.42
50380;BME280;37474;59.468;18.040;2023-04-21T04:55:59;102546.56;;;2.83;81.17
50380;BME280;37474;59.468;18.040;2023-04-21T04:58:27;102530.66;;;3.24;80.79
50380;BME280;37474;59.468;18.040;2023-04-21T05:00:56;102509.47;;;3.47;82.08
50380;BME280;37474;59.468;18.040;2023-04-21T05:03:24;102532.13;;;4.38;79.80
50380;BME280;37474;59.468;18.040;2023-04-21T05:05:53;102525.31;;;5.64;73.84
50380;BME280;37474;59.468;18.040;2023-04-21T05:08:23;102527.00;;;5.92;69.38
50380;BME280;37474;59.468;18.040;2023-04-21T05:10:51;102517.84;;;6.96;65.25
50380;BME280;37474;59.468;18.040;2023-04-21T05:13:19;102517.09;;;7.74;61.46
50380;BME280;37474;59.468;18.040;2023-04-21T05:15:47;102521.75;;;8.15;60.14
50380;BME280;37474;59.468;18.040;2023-04-21T05:18:16;102509.44;;;7.64;60.46
50380;BME280;37474;59.468;18.040;2023-04-21T05:20:44;102510.34;;;7.62;61.50
50380;BME280;37474;59.468;18.040;2023-04-21T05:23:12;102510.63;;;8.11;59.86
50380;BME280;37474;59.468;18.040;2023-04-21T05:25:40;102517.47;;;7.37;60.78
50380;BME280;37474;59.468;18.040;2023-04-21T05:28:08;102510.81;;;7.10;64.76
50380;BME280;37474;59.468;18.040;2023-04-21T05:30:36;102506.78;;;6.77;66.43
50380;BME280;37474;59.468;18.040;2023-04-21T05:33:04;102516.31;;;6.69;68.15
50380;BME280;37474;59.468;18.040;2023-04-21T05:35:34;102506.88;;;6.68;69.13
50380;BME280;37474;59.468;18.040;2023-04-21T05:38:04;102501.63;;;6.80;68.10
50380;BME280;37474;59.468;18.040;2023-04-21T05:40:32;102483.50;;;6.87;66.04
50380;BME280;37474;59.468;18.040;2023-04-21T05:43:00;102505.69;;;7.08;66.71
50380;BME280;37474;59.468;18.040;2023-04-21T05:45:28;102501.28;;;7.23;65.68
50380;BME280;37474;59.468;18.040;2023-04-21T05:47:56;102502.75;;;7.47;64.39
50380;BME280;37474;59.468;18.040;2023-04-21T05:50:24;102501.78;;;7.57;64.98
50380;BME280;37474;59.468;18.040;2023-04-21T05:53:01;102498.97;;;7.78;63.03
50380;BME280;37474;59.468;18.040;2023-04-21T05:55:29;102495.31;;;7.96;62.65
50380;BME280;37474;59.468;18.040;2023-04-21T05:57:57;102496.78;;;8.17;62.16
50380;BME280;37474;59.468;18.040;2023-04-21T06:00:25;102490.59;;;8.29;62.38
50380;BME280;37474;59.468;18.040;2023-04-21T06:02:53;102488.75;;;8.38;61.49
50380;BME280;37474;59.468;18.040;2023-04-21T06:05:21;102490.34;;;8.47;61.29
50380;BME280;37474;59.468;18.040;2023-04-21T06:07:50;102495.16;;;8.70;61.53
50380;BME280;37474;59.468;18.040;2023-04-21T06:10:19;102484.44;;;8.94;60.45
50380;BME280;37474;59.468;18.040;2023-04-21T06:12:47;102485.28;;;8.95;60.93
50380;BME280;37474;59.468;18.040;2023-04-21T06:15:16;102477.19;;;9.16;60.61
50380;BME280;37474;59.468;18.040;2023-04-21T06:17:44;102476.03;;;9.31;60.79
50380;BME280;37474;59.468;18.040;2023-04-21T06:20:12;102482.00;;;9.35;60.74
50380;BME280;37474;59.468;18.040;2023-04-21T06:22:40;102463.66;;;9.47;60.07
50380;BME280;37474;59.468;18.040;2023-04-21T06:25:08;102474.72;;;9.55;60.04
50380;BME280;37474;59.468;18.040;2023-04-21T06:27:38;102473.28;;;9.84;59.28
50380;BME280;37474;59.468;18.040;2023-04-21T06:30:07;102475.75;;;9.90;58.50
50380;BME280;37474;59.468;18.040;2023-04-21T06:32:35;102477.31;;;9.97;58.80
50380;BME280;37474;59.468;18.040;2023-04-21T06:35:04;102454.94;;;9.94;58.78
50380;BME280;37474;59.468;18.040;2023-04-21T06:37:35;102444.44;;;9.99;58.54
50380;BME280;37474;59.468;18.040;2023-04-21T06:40:03;102467.06;;;10.34;58.55
50380;BME280;37474;59.468;18.040;2023-04-21T06:42:31;102464.22;;;10.45;57.73
50380;BME280;37474;59.468;18.040;2023-04-21T06:45:01;102461.28;;;10.58;59.42
50380;BME280;37474;59.468;18.040;2023-04-21T06:47:29;102457.09;;;10.89;56.78
50380;BME280;37474;59.468;18.040;2023-04-21T06:49:57;102444.25;;;11.17;55.08
50380;BME280;37474;59.468;18.040;2023-04-21T06:52:25;102447.16;;;11.37;55.04
50380;BME280;37474;59.468;18.040;2023-04-21T06:54:53;102418.09;;;11.55;55.51
50380;BME280;37474;59.468;18.040;2023-04-21T06:57:21;102418.44;;;11.73;54.28
50380;BME280;37474;59.468;18.040;2023-04-21T06:59:52;102437.69;;;11.97;53.79
50380;BME280;37474;59.468;18.040;2023-04-21T07:02:32;102442.22;;;11.90;53.46
50380;BME280;37474;59.468;18.040;2023-04-21T07:05:05;102438.13;;;12.11;53.18
50380;BME280;37474;59.468;18.040;2023-04-21T07:07:44;102429.88;;;12.25;53.04
50380;BME280;37474;59.468;18.040;2023-04-21T07:10:15;102409.94;;;12.25;52.66
50380;BME280;37474;59.468;18.040;2023-04-21T07:12:56;102401.59;;;12.42;53.32
50380;BME280;37474;59.468;18.040;2023-04-21T07:15:33;102426.56;;;12.74;51.79
50380;BME280;37474;59.468;18.040;2023-04-21T07:18:19;102412.22;;;12.87;51.61
50380;BME280;37474;59.468;18.040;2023-04-21T07:20:47;102413.38;;;13.04;51.84
50380;BME280;37474;59.468;18.040;2023-04-21T07:23:15;102401.06;;;13.09;50.24
50380;BME280;37474;59.468;18.040;2023-04-21T07:25:44;102411.22;;;13.16;50.62
50380;BME280;37474;59.468;18.040;2023-04-21T07:28:12;102413.06;;;13.38;50.28
50380;BME280;37474;59.468;18.040;2023-04-21T07:30:41;102409.19;;;13.50;49.93
50380;BME280;37474;59.468;18.040;2023-04-21T07:33:09;102406.69;;;13.92;49.75
50380;BME280;37474;59.468;18.040;2023-04-21T07:35:39;102402.91;;;14.00;48.71
50380;BME280;37474;59.468;18.040;2023-04-21T07:38:07;102400.22;;;14.02;49.11
50380;BME280;37474;59.468;18.040;2023-04-21T07:40:35;102402.69;;;13.60;50.06
50380;BME280;37474;59.468;18.040;2023-04-21T07:43:03;102403.00;;;13.97;49.12
50380;BME280;37474;59.468;18.040;2023-04-21T07:45:31;102397.84;;;14.40;49.51
50380;BME280;37474;59.468;18.040;2023-04-21T07:47:59;102391.59;;;14.66;48.79
50380;BME280;37474;59.468;18.040;2023-04-21T07:50:27;102390.97;;;14.59;47.29
50380;BME280;37474;59.468;18.040;2023-04-21T07:52:57;102386.56;;;14.39;48.63
50380;BME280;37474;59.468;18.040;2023-04-21T07:55:25;102381.59;;;14.55;47.92
50380;BME280;37474;59.468;18.040;2023-04-21T07:57:53;102376.22;;;14.36;47.50
50380;BME280;37474;59.468;18.040;2023-04-21T08:00:21;102351.81;;;14.17;47.05
50380;BME280;37474;59.468;18.040;2023-04-21T08:02:50;102380.34;;;14.42;47.21
50380;BME280;37474;59.468;18.040;2023-04-21T08:05:18;102380.16;;;14.46;47.31
50380;BME280;37474;59.468;18.040;2023-04-21T08:07:46;102370.66;;;14.45;47.86
50380;BME280;37474;59.468;18.040;2023-04-21T08:10:16;102368.97;;;14.85;46.55
50380;BME280;37474;59.468;18.040;2023-04-21T08:12:44;102370.28;;;14.95;46.60
50380;BME280;37474;59.468;18.040;2023-04-21T08:15:12;102361.13;;;15.05;46.78
50380;BME280;37474;59.468;18.040;2023-04-21T08:17:40;102359.53;;;15.22;47.39
50380;BME280;37474;59.468;18.040;2023-04-21T08:20:09;102336.69;;;15.07;46.67
50380;BME280;37474;59.468;18.040;2023-04-21T08:22:37;102362.16;;;15.01;46.81
50380;BME280;37474;59.468;18.040;2023-04-21T08:25:06;102356.78;;;15.04;46.80
50380;BME280;37474;59.468;18.040;2023-04-21T08:27:37;102353.47;;;15.21;47.03
50380;BME280;37474;59.468;18.040;2023-04-21T08:30:07;102351.06;;;15.17;46.43
50380;BME280;37474;59.468;18.040;2023-04-21T08:32:36;102340.19;;;15.45;47.61
50380;BME280;37474;59.468;18.040;2023-04-21T08:35:04;102352.44;;;15.63;45.73
50380;BME280;37474;59.468;18.040;2023-04-21T08:37:35;102344.13;;;15.53;45.45
50380;BME280;37474;59.468;18.040;2023-04-21T08:40:04;102341.03;;;15.83;45.37
50380;BME280;37474;59.468;18.040;2023-04-21T08:42:33;102334.84;;;15.67;45.31
50380;BME280;37474;59.468;18.040;2023-04-21T08:45:04;102331.19;;;15.88;44.98
50380;BME280;37474;59.468;18.040;2023-04-21T08:47:33;102337.03;;;15.93;44.80
50380;BME280;37474;59.468;18.040;2023-04-21T08:50:02;102329.97;;;15.95;45.26
50380;BME280;37474;59.468;18.040;2023-04-21T08:52:30;102335.81;;;15.64;44.51
50380;BME280;37474;59.468;18.040;2023-04-21T08:54:58;102325.59;;;15.96;45.85
50380;BME280;37474;59.468;18.040;2023-04-21T08:57:27;102333.75;;;16.07;45.05
50380;BME280;37474;59.468;18.040;2023-04-21T08:59:55;102331.81;;;15.93;44.41
50380;BME280;37474;59.468;18.040;2023-04-21T09:02:24;102332.31;;;16.36;44.65
50380;BME280;37474;59.468;18.040;2023-04-21T09:04:52;102338.47;;;16.35;43.60
50380;BME280;37474;59.468;18.040;2023-04-21T09:07:32;102327.22;;;16.50;42.90
50380;BME280;37474;59.468;18.040;2023-04-21T09:10:00;102321.59;;;16.58;41.96
50380;BME280;37474;59.468;18.040;2023-04-21T09:12:29;102320.28;;;16.15;43.54
50380;BME280;37474;59.468;18.040;2023-04-21T09:14:57;102302.13;;;15.94;42.64
50380;BME280;37474;59.468;18.040;2023-04-21T09:17:30;102330.78;;;16.49;42.49
50380;BME280;37474;59.468;18.040;2023-04-21T09:20:12;102326.41;;;16.66;43.03
50380;BME280;37474;59.468;18.040;2023-04-21T09:22:41;102323.56;;;16.87;42.49
50380;BME280;37474;59.468;18.040;2023-04-21T09:25:09;102321.44;;;16.78;42.30
50380;BME280;37474;59.468;18.040;2023-04-21T09:27:37;102322.06;;;16.66;41.90
50380;BME280;37474;59.468;18.040;2023-04-21T09:30:06;102314.31;;;17.13;43.17
50380;BME280;37474;59.468;18.040;2023-04-21T09:32:38;102315.69;;;17.36;40.56
50380;BME280;37474;59.468;18.040;2023-04-21T09:35:08;102311.50;;;16.85;41.90
50380;BME280;37474;59.468;18.040;2023-04-21T09:37:37;102305.94;;;16.91;41.80
50380;BME280;37474;59.468;18.040;2023-04-21T09:40:06;102301.88;;;17.01;40.86
50380;BME280;37474;59.468;18.040;2023-04-21T09:42:34;102306.41;;;17.31;41.46
50380;BME280;37474;59.468;18.040;2023-04-21T09:45:07;102304.88;;;17.11;40.83
50380;BME280;37474;59.468;18.040;2023-04-21T09:47:57;102300.63;;;17.08;41.54
50380;BME280;37474;59.468;18.040;2023-04-21T09:50:27;102293.38;;;16.80;42.79
50380;BME280;37474;59.468;18.040;2023-04-21T09:52:59;102296.47;;;17.04;42.08
50380;BME280;37474;59.468;18.040;2023-04-21T09:55:30;102294.81;;;17.35;40.99
50380;BME280;37474;59.468;18.040;2023-04-21T09:58:00;102292.38;;;16.66;40.41
50380;BME280;37474;59.468;18.040;2023-04-21T10:00:31;102292.13;;;16.87;41.50
50380;BME280;37474;59.468;18.040;2023-04-21T10:03:08;102276.97;;;16.94;39.99
50380;BME280;37474;59.468;18.040;2023-04-21T10:05:38;102274.53;;;17.23;39.92
50380;BME280;37474;59.468;18.040;2023-04-21T10:08:09;102278.41;;;16.49;39.90
50380;BME280;37474;59.468;18.040;2023-04-21T10:10:38;102271.44;;;16.99;39.99
50380;BME280;37474;59.468;18.040;2023-04-21T10:13:12;102261.41;;;17.38;39.88
50380;BME280;37474;59.468;18.040;2023-04-21T10:15:41;102260.53;;;17.54;38.68
50380;BME280;37474;59.468;18.040;2023-04-21T10:18:16;102261.66;;;17.34;40.09
50380;BME280;37474;59.468;18.040;2023-04-21T10:20:52;102263.09;;;16.42;39.81
50380;BME280;37474;59.468;18.040;2023-04-21T10:23:31;102255.03;;;16.79;40.38
50380;BME280;37474;59.468;18.040;2023-04-21T10:26:04;102232.63;;;17.53;38.77
50380;BME280;37474;59.468;18.040;2023-04-21T10:28:55;102244.91;;;17.98;38.92
50380;BME280;37474;59.468;18.040;2023-04-21T10:31:30;102237.66;;;17.87;38.93
50380;BME280;37474;59.468;18.040;2023-04-21T10:34:19;102235.59;;;17.92;36.93
50380;BME280;37474;59.468;18.040;2023-04-21T10:37:06;102200.19;;;17.85;37.31
50380;BME280;37474;59.468;18.040;2023-04-21T10:39:42;102224.25;;;17.78;38.39
50380;BME280;37474;59.468;18.040;2023-04-21T10:42:22;102223.22;;;17.64;37.42
50380;BME280;37474;59.468;18.040;2023-04-21T10:44:52;102228.56;;;17.79;37.39
50380;BME280;37474;59.468;18.040;2023-04-21T10:47:24;102226.81;;;17.48;38.00
50380;BME280;37474;59.468;18.040;2023-04-21T10:49:55;102219.78;;;17.94;37.03
50380;BME280;37474;59.468;18.040;2023-04-21T10:52:30;102225.47;;;17.40;36.74
50380;BME280;37474;59.468;18.040;2023-04-21T10:55:07;102182.84;;;17.21;36.98
50380;BME280;37474;59.468;18.040;2023-04-21T10:57:41;102216.28;;;17.33;37.76
50380;BME280;37474;59.468;18.040;2023-04-21T11:00:14;102217.69;;;17.39;36.96
50380;BME280;37474;59.468;18.040;2023-04-21T11:02:43;102161.44;;;17.45;37.35
50380;BME280;37474;59.468;18.040;2023-04-21T11:05:13;102221.94;;;16.94;38.10
50380;BME280;37474;59.468;18.040;2023-04-21T11:07:41;102208.31;;;17.35;37.21
50380;BME280;37474;59.468;18.040;2023-04-21T11:10:10;102207.53;;;18.09;36.25
50380;BME280;37474;59.468;18.040;2023-04-21T11:12:39;102202.28;;;18.09;36.86
50380;BME280;37474;59.468;18.040;2023-04-21T11:15:09;102204.06;;;18.08;36.91
50380;BME280;37474;59.468;18.040;2023-04-21T11:17:37;102197.97;;;17.93;35.37
50380;BME280;37474;59.468;18.040;2023-04-21T11:20:09;102198.72;;;18.10;36.41
50380;BME280;37474;59.468;18.040;2023-04-21T11:22:38;102199.69;;;17.79;35.83
50380;BME280;37474;59.468;18.040;2023-04-21T11:25:15;102194.50;;;17.47;36.70
50380;BME280;37474;59.468;18.040;2023-04-21T11:27:52;102192.53;;;18.54;36.80
50380;BME280;37474;59.468;18.040;2023-04-21T11:30:29;102193.19;;;19.00;34.98
50380;BME280;37474;59.468;18.040;2023-04-21T11:32:58;102187.56;;;19.19;35.98
50380;BME280;37474;59.468;18.040;2023-04-21T11:35:27;102188.31;;;18.65;35.83
50380;BME280;37474;59.468;18.040;2023-04-21T11:37:56;102184.34;;;17.87;37.52
50380;BME280;37474;59.468;18.040;2023-04-21T11:40:24;102188.28;;;17.34;36.88
50380;BME280;37474;59.468;18.040;2023-04-21T11:42:53;102162.16;;;17.62;37.54
50380;BME280;37474;59.468;18.040;2023-04-21T11:45:21;102167.84;;;17.85;36.38
50380;BME280;37474;59.468;18.040;2023-04-21T11:47:49;102170.25;;;18.18;36.28
50380;BME280;37474;59.468;18.040;2023-04-21T11:50:29;102163.28;;;18.03;36.20
50380;BME280;37474;59.468;18.040;2023-04-21T11:53:01;102161.66;;;17.86;36.03
50380;BME280;37474;59.468;18.040;2023-04-21T11:55:29;102168.50;;;17.74;36.55
50380;BME280;37474;59.468;18.040;2023-04-21T11:57:57;102162.13;;;17.78;36.05
50380;BME280;37474;59.468;18.040;2023-04-21T12:00:28;102150.97;;;17.59;36.24
50380;BME280;37474;59.468;18.040;2023-04-21T12:02:57;102132.28;;;17.95;35.35
50380;BME280;37474;59.468;18.040;2023-04-21T12:05:33;102156.63;;;18.26;35.14
50380;BME280;37474;59.468;18.040;2023-04-21T12:08:03;102150.75;;;18.22;35.05
50380;BME280;37474;59.468;18.040;2023-04-21T12:10:32;102145.09;;;18.14;35.01
50380;BME280;37474;59.468;18.040;2023-04-21T12:13:00;102141.63;;;18.56;34.45
50380;BME280;37474;59.468;18.040;2023-04-21T12:15:29;102111.44;;;18.90;34.34
50380;BME280;37474;59.468;18.040;2023-04-21T12:18:00;102133.53;;;18.59;34.74
50380;BME280;37474;59.468;18.040;2023-04-21T12:20:28;102138.47;;;17.94;35.38
50380;BME280;37474;59.468;18.040;2023-04-21T12:22:57;102136.72;;;18.64;36.70
50380;BME280;37474;59.468;18.040;2023-04-21T12:25:28;102133.69;;;18.43;34.81
50380;BME280;37474;59.468;18.040;2023-04-21T12:27:57;102131.34;;;18.39;35.55
50380;BME280;37474;59.468;18.040;2023-04-21T12:30:25;102124.56;;;19.05;33.66
50380;BME280;37474;59.468;18.040;2023-04-21T12:32:53;102119.47;;;18.75;33.61
50380;BME280;37474;59.468;18.040;2023-04-21T12:35:21;102119.69;;;18.71;34.72
50380;BME280;37474;59.468;18.040;2023-04-21T12:37:50;102093.41;;;18.43;33.87
50380;BME280;37474;59.468;18.040;2023-04-21T12:40:18;102116.50;;;18.52;33.26
50380;BME280;37474;59.468;18.040;2023-04-21T12:42:47;102106.22;;;18.76;33.13
50380;BME280;37474;59.468;18.040;2023-04-21T12:45:15;102117.72;;;18.46;33.36
50380;BME280;37474;59.468;18.040;2023-04-21T12:47:43;102095.47;;;18.66;33.54
50380;BME280;37474;59.468;18.040;2023-04-21T12:50:13;102104.41;;;18.35;34.19
50380;BME280;37474;59.468;18.040;2023-04-21T12:52:41;102099.66;;;18.13;34.57
50380;BME280;37474;59.468;18.040;2023-04-21T12:55:09;102093.00;;;18.63;33.41